Time;durP1;ratioP1;P1;durP2;ratioP2;P2;SDS_P1;SDS_P2;PMS_P1;PMS_P2;Temp;Humidity;BMP_temperature;BMP_pressure;BME280_temperature;BME280_humidity;BME280_pressure;Samples;Min_cycle;Max_cycle;Signal;HPM_P1;HPM_P2
2021/06/14 00:00:08;;;;;;;2.53;2.00;;;12.40;73.70;;;;;;5040993;28;20033;-76
2021/06/14 00:02:34;;;;;;;2.80;2.20;;;12.40;73.90;;;;;;5041878;28;20045;-75
2021/06/14 00:05:00;;;;;;;3.20;2.30;;;12.30;73.80;;;;;;5029864;28;20060;-79
2021/06/14 00:07:25;;;;;;;3.08;2.28;;;12.20;74.10;;;;;;5032271;28;20029;-75
2021/06/14 00:09:51;;;;;;;2.10;1.90;;;12.20;74.30;;;;;;5038324;28;20032;-77
2021/06/14 00:12:21;;;;;;;3.88;2.35;;;12.10;74.50;;;;;;5033169;28;20036;-76
2021/06/14 00:14:48;;;;;;;4.55;2.40;;;12.10;74.80;;;;;;5040336;28;20037;-74
2021/06/14 00:17:14;;;;;;;2.27;2.00;;;12.10;75.00;;;;;;5038348;28;20530;-76
2021/06/14 00:19:40;;;;;;;4.18;2.40;;;12.10;74.50;;;;;;5038048;28;20104;-75
2021/06/14 00:22:06;;;;;;;2.45;2.08;;;12.10;74.60;;;;;;5036044;28;20074;-76
2021/06/14 00:24:32;;;;;;;3.70;2.60;;;12.10;75.30;;;;;;5038498;28;20043;-75
2021/06/14 00:26:57;;;;;;;4.85;3.10;;;12.00;75.70;;;;;;5038467;28;20441;-75
2021/06/14 00:29:23;;;;;;;2.45;2.25;;;12.10;74.80;;;;;;5033783;28;20025;-76
2021/06/14 00:31:49;;;;;;;2.70;2.50;;;11.90;75.30;;;;;;5033907;28;20034;-76
2021/06/14 00:34:14;;;;;;;2.10;2.00;;;11.90;75.70;;;;;;5034352;28;20522;-76
2021/06/14 00:36:40;;;;;;;3.55;2.50;;;11.70;76.30;;;;;;5033233;28;20029;-76
2021/06/14 00:39:05;;;;;;;2.47;2.28;;;11.60;76.60;;;;;;5037397;28;20035;-77
2021/06/14 00:41:31;;;;;;;7.25;2.60;;;11.70;76.10;;;;;;5051076;28;20033;-75
2021/06/14 00:43:57;;;;;;;3.60;2.20;;;11.60;75.90;;;;;;5038293;28;20037;-75
2021/06/14 00:46:22;;;;;;;5.03;2.42;;;11.70;75.80;;;;;;5037387;28;20033;-75
2021/06/14 00:48:48;;;;;;;2.95;2.28;;;11.70;75.90;;;;;;5031507;28;20135;-75
2021/06/14 00:51:14;;;;;;;3.22;2.25;;;11.80;75.00;;;;;;5030372;28;20025;-76
2021/06/14 00:53:41;;;;;;;1.98;1.88;;;11.90;74.20;;;;;;5032911;28;20029;-75
2021/06/14 00:56:14;;;;;;;2.42;2.13;;;11.90;74.00;;;;;;5036471;28;20025;-75
2021/06/14 00:58:41;;;;;;;3.45;2.25;;;11.90;73.30;;;;;;5055182;28;20028;-75
2021/06/14 01:01:08;;;;;;;4.37;2.50;;;11.80;73.30;;;;;;5037010;28;20037;-76
2021/06/14 01:03:34;;;;;;;2.90;2.33;;;11.70;74.10;;;;;;5036235;28;20056;-76
2021/06/14 01:06:03;;;;;;;7.63;2.60;;;11.50;75.80;;;;;;5036912;28;20053;-75
2021/06/14 01:08:32;;;;;;;;;;;11.40;76.60;;;;;;5041228;28;20021;-74
2021/06/14 01:11:12;;;;;;;2.35;2.10;;;11.40;76.60;;;;;;5034515;28;19913;-76
2021/06/14 01:13:45;;;;;;;2.92;2.28;;;11.40;76.40;;;;;;5041860;28;20732;-76
2021/06/14 01:16:39;;;;;;;3.55;2.90;;;11.60;76.00;;;;;;5038292;28;20028;-75
2021/06/14 01:19:10;;;;;;;4.93;2.35;;;11.60;76.20;;;;;;5052382;28;20084;-76
2021/06/14 01:21:53;;;;;;;3.70;2.30;;;11.60;76.00;;;;;;5038458;28;20029;-75
2021/06/14 01:24:50;;;;;;;3.60;2.85;;;11.60;76.00;;;;;;5044328;28;20021;-75
2021/06/14 01:27:35;;;;;;;4.35;2.38;;;11.60;76.40;;;;;;5039350;28;20063;-75
2021/06/14 01:30:03;;;;;;;4.55;2.67;;;11.50;77.30;;;;;;5055816;28;20032;-75
2021/06/14 01:32:29;;;;;;;4.03;2.42;;;11.70;75.00;;;;;;5039356;28;20044;-76
2021/06/14 01:34:55;;;;;;;2.58;2.20;;;11.70;74.20;;;;;;5041055;28;20025;-74
2021/06/14 01:37:22;;;;;;;2.50;2.30;;;11.50;72.80;;;;;;5036460;28;20036;-76
2021/06/14 01:39:48;;;;;;;3.30;2.42;;;11.50;73.70;;;;;;5042648;28;20018;-76
2021/06/14 01:42:16;;;;;;;4.53;2.65;;;11.40;74.50;;;;;;5036506;28;20021;-77
2021/06/14 01:44:44;;;;;;;2.50;2.30;;;11.40;75.00;;;;;;5046628;28;20166;-76
2021/06/14 01:47:13;;;;;;;3.42;2.30;;;11.20;75.70;;;;;;5043921;28;20025;-77
2021/06/14 01:49:39;;;;;;;3.10;2.40;;;11.30;75.00;;;;;;5058052;28;20538;-75
2021/06/14 01:52:05;;;;;;;4.47;2.20;;;11.30;74.80;;;;;;5034917;28;20094;-75
2021/06/14 01:54:31;;;;;;;3.13;2.38;;;11.30;74.30;;;;;;5041455;28;20021;-76
2021/06/14 01:56:59;;;;;;;2.28;2.08;;;11.30;74.60;;;;;;5039456;28;20120;-75
2021/06/14 01:59:37;;;;;;;4.07;2.63;;;11.30;74.70;;;;;;5036573;28;20060;-76
2021/06/14 02:02:06;;;;;;;3.78;2.80;;;11.20;76.00;;;;;;5034553;28;20028;-75
2021/06/14 02:04:36;;;;;;;2.95;2.40;;;11.00;76.90;;;;;;5045410;28;20029;-77
2021/06/14 02:07:02;;;;;;;3.53;2.22;;;11.10;76.40;;;;;;5036455;28;20043;-77
2021/06/14 02:09:29;;;;;;;2.40;2.20;;;11.10;76.30;;;;;;5042404;28;20033;-75
2021/06/14 02:11:58;;;;;;;2.72;2.50;;;11.10;76.20;;;;;;5033660;28;20041;-74
2021/06/14 02:14:32;;;;;;;2.90;2.05;;;10.90;77.10;;;;;;5041448;28;20033;-75
2021/06/14 02:17:03;;;;;;;3.95;2.00;;;11.00;76.80;;;;;;5032092;28;20040;-76
2021/06/14 02:19:28;;;;;;;1.50;1.40;;;10.80;78.10;;;;;;5032280;28;20032;-76
2021/06/14 02:21:54;;;;;;;5.32;2.33;;;10.70;78.90;;;;;;5033456;28;20033;-77
2021/06/14 02:24:20;;;;;;;4.35;2.63;;;10.50;81.80;;;;;;5051099;28;20598;-75
2021/06/14 02:26:46;;;;;;;4.70;2.58;;;10.30;82.90;;;;;;5028818;28;20132;-75
2021/06/14 02:29:13;;;;;;;2.97;2.50;;;10.50;81.50;;;;;;5030537;28;20043;-74
2021/06/14 02:31:38;;;;;;;3.92;2.80;;;10.60;81.40;;;;;;5029473;28;20033;-76
2021/06/14 02:34:06;;;;;;;6.68;3.22;;;10.60;81.50;;;;;;5031676;28;20052;-75
2021/06/14 02:36:33;;;;;;;3.47;3.13;;;10.40;82.90;;;;;;5027404;28;20025;-76
2021/06/14 02:39:03;;;;;;;3.38;3.05;;;10.50;81.80;;;;;;5035441;28;20025;-75
2021/06/14 02:41:31;;;;;;;3.45;2.60;;;10.60;82.00;;;;;;5030705;28;20183;-74
2021/06/14 02:43:57;;;;;;;5.10;2.93;;;10.80;81.10;;;;;;5029981;28;20032;-77
2021/06/14 02:46:23;;;;;;;4.25;3.28;;;10.90;80.60;;;;;;5031964;28;20025;-74
2021/06/14 02:48:49;;;;;;;4.60;3.20;;;10.80;81.00;;;;;;5026466;28;20048;-73
2021/06/14 02:51:17;;;;;;;4.43;3.47;;;10.70;81.60;;;;;;5031444;28;20064;-75
2021/06/14 02:53:45;;;;;;;6.77;3.43;;;10.70;81.60;;;;;;5031797;28;20036;-76
2021/06/14 02:56:16;;;;;;;3.28;2.85;;;10.80;80.90;;;;;;5032509;28;20670;-75
2021/06/14 02:58:45;;;;;;;4.65;3.67;;;10.90;80.30;;;;;;5028985;28;20142;-76
2021/06/14 03:01:11;;;;;;;;;;;10.80;80.40;;;;;;5032898;28;20043;-75
2021/06/14 03:03:40;;;;;;;4.60;3.15;;;10.60;80.90;;;;;;5034621;28;19916;-76
2021/06/14 03:06:08;;;;;;;3.25;2.63;;;10.60;81.80;;;;;;5036081;28;20094;-77
2021/06/14 03:08:36;;;;;;;5.28;3.33;;;10.60;80.60;;;;;;5039554;28;20480;-75
2021/06/14 03:11:03;;;;;;;3.10;2.67;;;10.60;80.80;;;;;;5028724;28;20030;-74
2021/06/14 03:13:29;;;;;;;4.95;2.67;;;10.60;79.60;;;;;;5036300;28;20633;-76
2021/06/14 03:15:56;;;;;;;4.95;2.97;;;10.60;79.60;;;;;;5031113;28;20055;-75
2021/06/14 03:18:24;;;;;;;3.85;2.75;;;10.60;80.00;;;;;;5025841;28;20032;-76
2021/06/14 03:20:53;;;;;;;3.40;2.90;;;10.50;80.30;;;;;;5030151;28;20607;-76
2021/06/14 03:23:19;;;;;;;5.15;2.67;;;10.50;80.10;;;;;;5028147;28;20217;-76
2021/06/14 03:25:45;;;;;;;4.60;3.00;;;10.60;78.80;;;;;;5026268;28;20546;-77
2021/06/14 03:28:13;;;;;;;4.53;2.95;;;10.50;78.50;;;;;;5031580;28;20072;-74
2021/06/14 03:30:40;;;;;;;6.78;3.15;;;10.50;80.10;;;;;;5031233;28;20041;-76
2021/06/14 03:33:08;;;;;;;4.87;3.70;;;10.30;81.20;;;;;;5028301;28;20040;-75
2021/06/14 03:35:34;;;;;;;3.67;2.78;;;10.30;81.40;;;;;;5028768;28;20332;-76
2021/06/14 03:38:01;;;;;;;4.45;2.90;;;10.50;80.30;;;;;;5029445;28;20020;-75
2021/06/14 03:40:27;;;;;;;4.60;2.90;;;10.60;79.80;;;;;;5026383;28;20044;-76
2021/06/14 03:43:01;;;;;;;2.85;2.40;;;10.70;79.20;;;;;;5030018;28;20030;-75
2021/06/14 03:45:27;;;;;;;4.55;3.10;;;10.60;78.50;;;;;;5027432;28;20046;-77
2021/06/14 03:47:53;;;;;;;2.83;2.22;;;10.70;78.20;;;;;;5028021;28;20021;-76
2021/06/14 03:50:18;;;;;;;2.65;2.45;;;10.70;77.60;;;;;;5029179;28;20720;-76
2021/06/14 03:52:44;;;;;;;3.70;2.90;;;10.70;77.60;;;;;;5027235;28;20021;-74
2021/06/14 03:55:11;;;;;;;3.25;2.95;;;10.80;78.10;;;;;;5030296;28;20421;-73
2021/06/14 03:57:37;;;;;;;6.13;2.83;;;10.80;78.30;;;;;;5033675;28;20582;-76
2021/06/14 04:00:06;;;;;;;4.53;3.05;;;10.80;78.50;;;;;;5032543;28;20039;-77
2021/06/14 04:02:31;;;;;;;;;;;10.80;78.90;;;;;;5050627;28;20098;-76
2021/06/14 04:04:58;;;;;;;4.53;3.40;;;10.80;79.20;;;;;;5032506;28;20475;-77
2021/06/14 04:07:23;;;;;;;3.30;3.00;;;10.80;79.80;;;;;;5032753;28;20951;-77
2021/06/14 04:09:49;;;;;;;4.35;3.20;;;10.90;80.10;;;;;;5037823;28;20040;-77
2021/06/14 04:12:15;;;;;;;4.05;3.20;;;11.00;80.40;;;;;;5031743;28;20029;-77
2021/06/14 04:14:42;;;;;;;4.95;3.35;;;11.10;80.50;;;;;;5034580;28;20063;-78
2021/06/14 04:17:08;;;;;;;4.47;3.75;;;11.20;80.90;;;;;;5033726;28;20132;-77
2021/06/14 04:19:34;;;;;;;5.60;3.80;;;11.40;80.10;;;;;;5034834;28;20491;-78
2021/06/14 04:22:00;;;;;;;7.38;4.07;;;11.50;80.00;;;;;;5038731;28;20034;-78
2021/06/14 04:24:26;;;;;;;6.65;3.63;;;11.60;80.10;;;;;;5037197;28;20469;-76
2021/06/14 04:26:52;;;;;;;4.18;3.17;;;11.70;80.20;;;;;;5035168;28;20103;-76
2021/06/14 04:29:17;;;;;;;5.03;3.17;;;11.80;80.20;;;;;;5045251;28;20032;-75
2021/06/14 04:31:43;;;;;;;4.70;3.33;;;11.90;80.00;;;;;;5036105;28;20474;-77
2021/06/14 04:34:09;;;;;;;5.45;4.10;;;12.00;79.80;;;;;;5031041;28;20574;-78
2021/06/14 04:36:36;;;;;;;4.28;3.40;;;12.00;80.20;;;;;;5038401;28;20107;-77
2021/06/14 04:39:02;;;;;;;4.43;3.50;;;12.10;79.60;;;;;;5034048;28;20086;-77
2021/06/14 04:41:27;;;;;;;9.98;3.97;;;12.20;79.60;;;;;;5037831;28;20090;-77
2021/06/14 04:43:53;;;;;;;5.90;3.53;;;12.30;80.00;;;;;;5036903;28;20040;-77
2021/06/14 04:46:19;;;;;;;4.65;3.40;;;12.40;80.30;;;;;;5033503;28;20053;-76
2021/06/14 04:48:44;;;;;;;5.25;4.07;;;12.50;80.40;;;;;;5040613;28;20029;-76
2021/06/14 04:51:10;;;;;;;6.32;3.72;;;12.70;80.70;;;;;;5038213;28;21454;-77
2021/06/14 04:53:37;;;;;;;5.82;3.95;;;12.80;81.10;;;;;;5043322;28;20047;-77
2021/06/14 04:56:02;;;;;;;4.57;3.38;;;12.80;80.70;;;;;;5041168;28;20132;-77
2021/06/14 04:58:28;;;;;;;6.55;4.43;;;12.90;79.80;;;;;;5040488;28;20092;-75
2021/06/14 05:00:54;;;;;;;6.07;4.20;;;12.90;80.30;;;;;;5036216;28;20041;-77
2021/06/14 05:03:19;;;;;;;7.38;3.88;;;13.00;80.20;;;;;;5040417;28;20033;-74
2021/06/14 05:05:45;;;;;;;7.00;3.78;;;13.10;80.10;;;;;;5040230;28;20029;-76
2021/06/14 05:08:12;;;;;;;7.47;3.90;;;13.20;80.80;;;;;;5039492;28;20083;-75
2021/06/14 05:10:38;;;;;;;5.17;4.10;;;13.20;78.90;;;;;;5034441;28;20029;-75
2021/06/14 05:13:04;;;;;;;7.47;4.38;;;13.20;78.80;;;;;;5033483;28;20025;-76
2021/06/14 05:15:30;;;;;;;6.13;4.32;;;13.40;80.30;;;;;;5040041;28;20024;-77
2021/06/14 05:17:55;;;;;;;7.40;4.50;;;13.50;78.90;;;;;;5039549;28;20506;-76
2021/06/14 05:20:21;;;;;;;7.22;4.30;;;13.60;79.80;;;;;;5034763;28;20033;-76
2021/06/14 05:22:47;;;;;;;5.13;4.20;;;13.60;79.30;;;;;;5036668;28;20028;-75
2021/06/14 05:25:15;;;;;;;7.60;3.85;;;13.80;79.50;;;;;;5039130;28;20025;-76
2021/06/14 05:27:40;;;;;;;;;;;13.90;77.40;;;;;;5044460;28;20031;-75
2021/06/14 05:30:07;;;;;;;6.68;4.45;;;14.00;79.80;;;;;;5036194;28;19920;-77
2021/06/14 05:32:32;;;;;;;4.97;3.58;;;14.20;78.20;;;;;;5031920;28;20041;-77
2021/06/14 05:34:59;;;;;;;5.97;4.38;;;14.30;77.30;;;;;;5037990;28;20017;-76
2021/06/14 05:37:25;;;;;;;4.15;3.30;;;14.40;74.30;;;;;;5037984;28;20030;-76
2021/06/14 05:39:50;;;;;;;5.40;3.47;;;14.60;74.80;;;;;;5040039;28;20455;-77
2021/06/14 05:42:16;;;;;;;5.18;3.13;;;14.70;73.50;;;;;;5033079;28;20032;-75
2021/06/14 05:44:41;;;;;;;5.40;3.65;;;14.80;71.20;;;;;;5035766;28;20041;-76
2021/06/14 05:47:07;;;;;;;6.15;3.42;;;14.90;73.90;;;;;;5034709;28;20029;-75
2021/06/14 05:49:33;;;;;;;5.93;3.33;;;15.00;71.90;;;;;;5034904;28;20108;-76
2021/06/14 05:52:00;;;;;;;6.05;3.60;;;15.00;69.70;;;;;;5038132;28;20035;-76
2021/06/14 05:54:26;;;;;;;4.93;3.72;;;15.10;68.30;;;;;;5037292;28;20055;-75
2021/06/14 05:56:51;;;;;;;5.45;3.08;;;15.20;69.10;;;;;;5036600;28;20041;-76
2021/06/14 05:59:17;;;;;;;9.48;3.67;;;15.20;66.50;;;;;;5032603;28;21016;-76
2021/06/14 06:01:43;;;;;;;4.50;3.30;;;15.30;67.20;;;;;;5035689;28;20567;-75
2021/06/14 06:04:08;;;;;;;6.53;3.25;;;15.40;66.80;;;;;;5035005;28;20033;-74
2021/06/14 06:06:35;;;;;;;4.35;3.67;;;15.40;65.80;;;;;;5039803;28;20051;-76
2021/06/14 06:09:00;;;;;;;5.05;3.20;;;15.50;66.80;;;;;;5041575;28;20029;-76
2021/06/14 06:11:26;;;;;;;4.97;2.97;;;15.60;68.00;;;;;;5044501;28;20053;-76
2021/06/14 06:13:52;;;;;;;8.70;3.15;;;15.70;68.40;;;;;;5040680;28;20036;-76
2021/06/14 06:16:17;;;;;;;6.63;3.60;;;15.80;66.40;;;;;;5040602;28;20048;-75
2021/06/14 06:18:43;;;;;;;4.32;3.20;;;15.90;66.20;;;;;;5038495;28;20040;-77
2021/06/14 06:21:09;;;;;;;4.18;3.45;;;15.90;65.10;;;;;;5035698;28;20045;-75
2021/06/14 06:23:35;;;;;;;6.93;3.38;;;16.00;66.80;;;;;;5034334;28;20029;-76
2021/06/14 06:26:01;;;;;;;4.50;3.17;;;16.00;64.40;;;;;;5040079;28;20032;-75
2021/06/14 06:28:26;;;;;;;6.40;3.55;;;16.10;64.70;;;;;;5036393;28;20664;-75
2021/06/14 06:30:52;;;;;;;7.28;3.17;;;16.20;67.80;;;;;;5047777;28;20041;-76
2021/06/14 06:33:18;;;;;;;4.70;3.42;;;16.30;65.00;;;;;;5039304;28;20446;-76
2021/06/14 06:35:43;;;;;;;5.45;3.65;;;16.30;65.70;;;;;;5035453;28;20028;-76
2021/06/14 06:38:09;;;;;;;4.60;3.38;;;16.30;64.30;;;;;;5036913;28;20040;-76
2021/06/14 06:40:35;;;;;;;3.83;2.90;;;16.30;64.30;;;;;;5038167;28;20037;-76
2021/06/14 06:43:00;;;;;;;5.25;3.15;;;16.40;64.60;;;;;;5037175;28;20056;-76
2021/06/14 06:45:27;;;;;;;6.72;3.20;;;16.50;64.10;;;;;;5030978;28;21662;-76
2021/06/14 06:47:53;;;;;;;4.80;2.90;;;16.60;65.00;;;;;;5036446;28;20462;-75
2021/06/14 06:50:19;;;;;;;5.38;3.17;;;16.70;64.70;;;;;;5035012;28;20029;-77
2021/06/14 06:52:45;;;;;;;5.43;3.33;;;16.80;63.20;;;;;;5038839;28;20447;-74
2021/06/14 06:55:13;;;;;;;5.80;3.17;;;16.90;61.40;;;;;;5035234;28;20025;-76
2021/06/14 06:57:40;;;;;;;4.85;3.00;;;16.90;63.50;;;;;;5038293;28;20490;-77
2021/06/14 07:00:11;;;;;;;4.97;3.38;;;17.00;63.00;;;;;;5040554;28;20021;-74
2021/06/14 07:02:37;;;;;;;5.20;3.17;;;17.10;62.50;;;;;;5033304;28;20048;-77
2021/06/14 07:05:03;;;;;;;4.35;3.13;;;17.20;64.20;;;;;;5031638;28;20033;-75
2021/06/14 07:07:29;;;;;;;3.65;3.17;;;17.30;62.60;;;;;;5039868;28;20025;-77
2021/06/14 07:09:55;;;;;;;2.83;2.15;;;17.40;61.80;;;;;;5042467;28;20036;-76
2021/06/14 07:12:20;;;;;;;7.22;3.17;;;17.40;58.90;;;;;;5044528;28;20526;-75
2021/06/14 07:14:46;;;;;;;3.70;2.88;;;17.50;62.30;;;;;;5032022;28;20114;-77
2021/06/14 07:17:12;;;;;;;6.75;2.92;;;17.50;59.30;;;;;;5035752;28;20127;-74
2021/06/14 07:19:37;;;;;;;5.03;2.80;;;17.50;59.80;;;;;;5030927;28;20045;-76
2021/06/14 07:22:03;;;;;;;7.50;2.58;;;17.60;61.70;;;;;;5031989;28;21788;-75
2021/06/14 07:24:29;;;;;;;4.57;3.08;;;17.70;59.10;;;;;;5036427;28;20032;-76
2021/06/14 07:26:55;;;;;;;3.42;2.60;;;17.70;60.00;;;;;;5030772;28;20039;-75
2021/06/14 07:29:21;;;;;;;8.25;3.13;;;17.80;59.00;;;;;;5031452;28;20033;-76
2021/06/14 07:31:47;;;;;;;5.20;3.00;;;18.00;61.90;;;;;;5036673;28;20056;-75
2021/06/14 07:34:12;;;;;;;4.65;2.70;;;18.00;60.10;;;;;;5032257;28;20172;-76
2021/06/14 07:36:38;;;;;;;5.50;2.60;;;18.10;59.30;;;;;;5037628;28;20037;-77
2021/06/14 07:39:05;;;;;;;6.35;3.25;;;18.10;56.30;;;;;;5029802;28;20036;-74
2021/06/14 07:41:31;;;;;;;5.15;2.40;;;18.10;58.00;;;;;;5034866;28;20179;-76
2021/06/14 07:43:57;;;;;;;5.53;2.60;;;18.30;58.30;;;;;;5037010;28;20101;-77
2021/06/14 07:46:22;;;;;;;14.57;10.60;;;18.20;57.70;;;;;;5033670;28;20337;-74
2021/06/14 07:48:48;;;;;;;3.25;2.92;;;18.50;54.90;;;;;;5036602;28;20117;-75
2021/06/14 07:51:14;;;;;;;5.95;2.78;;;18.40;56.20;;;;;;5037215;28;20032;-76
2021/06/14 07:53:40;;;;;;;6.05;2.95;;;18.50;59.80;;;;;;5031350;28;20029;-75
2021/06/14 07:56:07;;;;;;;8.48;3.20;;;18.50;58.80;;;;;;5040334;28;20154;-75
2021/06/14 07:58:33;;;;;;;3.75;2.58;;;18.60;58.80;;;;;;5036667;28;20048;-76
2021/06/14 08:01:00;;;;;;;6.85;3.20;;;18.60;57.40;;;;;;5033948;28;20037;-77
2021/06/14 08:03:26;;;;;;;3.22;2.42;;;18.60;59.00;;;;;;5036300;28;20025;-75
2021/06/14 08:05:52;;;;;;;3.60;2.38;;;18.70;55.80;;;;;;5034405;28;20033;-75
2021/06/14 08:08:18;;;;;;;2.85;2.55;;;18.70;55.60;;;;;;5041633;28;20029;-76
2021/06/14 08:10:45;;;;;;;3.42;2.35;;;18.70;58.50;;;;;;5046764;28;20131;-76
2021/06/14 08:13:11;;;;;;;4.05;3.03;;;18.80;55.30;;;;;;5052502;28;20032;-75
2021/06/14 08:15:38;;;;;;;4.75;2.78;;;18.90;57.30;;;;;;5060998;28;20039;-77
2021/06/14 08:19:03;;;;;;;4.15;2.60;;;18.90;55.20;;;;;;5048973;28;21740;-77
2021/06/14 08:26:07;;;;;;;4.78;2.40;;;19.10;56.40;;;;;;5040566;28;20043;-77
2021/06/14 08:28:32;;;;;;;5.20;2.60;;;19.20;56.80;;;;;;5039150;28;20485;-75
2021/06/14 08:30:58;;;;;;;10.98;3.13;;;19.30;56.60;;;;;;5037523;28;20715;-77
2021/06/14 08:33:24;;;;;;;3.63;2.70;;;19.30;53.40;;;;;;5039878;28;20049;-75
2021/06/14 08:35:50;;;;;;;4.03;2.88;;;19.40;56.50;;;;;;5034224;28;20052;-75
2021/06/14 08:38:15;;;;;;;4.05;2.75;;;19.50;57.20;;;;;;5033723;28;20166;-73
2021/06/14 08:40:41;;;;;;;5.18;2.83;;;19.50;55.00;;;;;;5040106;28;20475;-75
2021/06/14 08:43:08;;;;;;;4.13;2.65;;;19.70;56.10;;;;;;5041689;28;20143;-76
2021/06/14 08:45:37;;;;;;;3.97;3.13;;;19.70;52.40;;;;;;5034135;28;20083;-77
2021/06/14 08:48:04;;;;;;;4.20;2.53;;;19.70;55.40;;;;;;5040704;28;20024;-75
2021/06/14 08:50:30;;;;;;;9.37;3.10;;;19.80;55.30;;;;;;5041817;28;20036;-75
2021/06/14 08:52:56;;;;;;;4.50;2.63;;;19.70;50.90;;;;;;5047517;28;20049;-75
2021/06/14 08:55:23;;;;;;;4.47;2.70;;;19.70;54.90;;;;;;5037278;28;20512;-77
2021/06/14 08:57:50;;;;;;;6.63;3.00;;;19.80;53.50;;;;;;5039477;28;20029;-76
2021/06/14 09:00:20;;;;;;;3.70;2.55;;;19.80;54.30;;;;;;5037163;28;20051;-75
2021/06/14 09:02:46;;;;;;;4.72;2.45;;;19.90;53.90;;;;;;5037955;28;20044;-76
2021/06/14 09:05:15;;;;;;;3.38;2.50;;;20.00;50.50;;;;;;5040666;28;20498;-76
2021/06/14 09:07:41;;;;;;;16.23;3.33;;;20.00;50.70;;;;;;5038172;28;20040;-77
2021/06/14 09:10:08;;;;;;;3.30;2.40;;;20.10;48.90;;;;;;5035788;28;20063;-76
2021/06/14 09:12:38;;;;;;;3.67;2.67;;;20.10;48.80;;;;;;5037149;28;20051;-76
2021/06/14 09:15:10;;;;;;;3.90;2.20;;;20.20;51.70;;;;;;5044111;28;20910;-76
2021/06/14 09:17:36;;;;;;;4.90;2.60;;;20.20;46.90;;;;;;5034985;28;20029;-76
2021/06/14 09:20:03;;;;;;;5.38;2.75;;;20.30;49.80;;;;;;5049154;28;20094;-76
2021/06/14 09:22:28;;;;;;;2.78;2.33;;;20.40;52.50;;;;;;5037848;28;20393;-77
2021/06/14 09:25:08;;;;;;;2.47;2.15;;;20.40;52.20;;;;;;5038904;28;20029;-75
2021/06/14 09:27:42;;;;;;;3.95;2.63;;;20.30;51.10;;;;;;5037707;28;20694;-76
2021/06/14 09:30:21;;;;;;;4.50;2.50;;;20.60;49.40;;;;;;5034851;28;20047;-76
2021/06/14 09:33:04;;;;;;;3.47;2.40;;;21.00;47.60;;;;;;5039419;28;20037;-77
2021/06/14 09:35:41;;;;;;;3.47;2.50;;;21.20;48.70;;;;;;5039340;28;20098;-78
2021/06/14 09:38:15;;;;;;;3.03;2.30;;;21.40;50.00;;;;;;5035790;28;20588;-76
2021/06/14 09:40:53;;;;;;;3.30;2.22;;;21.50;45.80;;;;;;5051134;28;20056;-77
2021/06/14 09:43:25;;;;;;;;;;;21.50;44.10;;;;;;5039943;28;20021;-77
2021/06/14 09:45:51;;;;;;;4.45;2.60;;;21.50;47.20;;;;;;5041363;28;19971;-77
2021/06/14 09:48:24;;;;;;;5.30;2.35;;;21.50;48.70;;;;;;5040409;28;20056;-77
2021/06/14 09:50:52;;;;;;;3.70;2.30;;;21.50;44.60;;;;;;5035357;28;21138;-75
2021/06/14 09:53:20;;;;;;;5.30;2.08;;;21.50;45.90;;;;;;5035053;28;20016;-76
2021/06/14 09:55:49;;;;;;;4.15;2.40;;;21.60;45.70;;;;;;5052433;28;20056;-76
2021/06/14 09:58:16;;;;;;;5.70;2.47;;;21.70;50.00;;;;;;5034757;28;20036;-75
2021/06/14 10:00:54;;;;;;;6.27;2.70;;;21.80;48.70;;;;;;5033792;28;20121;-77
2021/06/14 10:03:21;;;;;;;4.18;2.55;;;21.80;48.80;;;;;;5034196;28;20034;-74
2021/06/14 10:05:50;;;;;;;3.72;2.40;;;21.90;44.80;;;;;;5032628;28;20029;-75
2021/06/14 10:08:32;;;;;;;4.00;2.13;;;22.00;45.80;;;;;;5038154;28;20055;-78
2021/06/14 10:11:04;;;;;;;5.00;2.38;;;22.00;42.50;;;;;;5040841;28;20031;-78
2021/06/14 10:13:31;;;;;;;3.13;2.30;;;21.90;42.90;;;;;;5033327;28;20071;-77
2021/06/14 10:16:05;;;;;;;3.57;2.30;;;21.80;46.70;;;;;;5040273;28;20281;-78
2021/06/14 10:18:34;;;;;;;5.35;2.30;;;21.70;47.40;;;;;;5038053;28;20033;-78
2021/06/14 10:21:01;;;;;;;3.10;2.58;;;21.80;47.10;;;;;;5039055;28;20035;-78
2021/06/14 10:23:27;;;;;;;2.25;2.05;;;21.80;44.70;;;;;;5034699;28;20120;-78
2021/06/14 10:25:57;;;;;;;3.72;2.22;;;21.80;44.80;;;;;;5041181;28;20110;-78
2021/06/14 10:28:23;;;;;;;3.50;2.55;;;21.80;45.00;;;;;;5035907;28;20013;-78
2021/06/14 10:30:50;;;;;;;3.05;2.38;;;21.90;46.70;;;;;;5039067;28;20090;-77
2021/06/14 10:33:16;;;;;;;4.88;2.65;;;21.90;46.40;;;;;;5036314;28;20087;-78
2021/06/14 10:35:41;;;;;;;3.05;2.13;;;21.90;43.40;;;;;;5032346;28;22162;-78
2021/06/14 10:38:08;;;;;;;3.55;2.28;;;22.00;43.40;;;;;;5034893;28;20079;-78
2021/06/14 10:40:35;;;;;;;6.68;2.60;;;22.10;43.30;;;;;;5037102;28;20029;-78
2021/06/14 10:43:02;;;;;;;5.75;2.50;;;22.20;42.60;;;;;;5039575;28;20108;-78
2021/06/14 10:45:30;;;;;;;3.60;2.35;;;22.20;44.30;;;;;;5039749;28;20036;-77
2021/06/14 10:47:56;;;;;;;3.53;2.25;;;22.10;46.20;;;;;;5034810;28;20047;-79
2021/06/14 10:50:30;;;;;;;2.97;2.67;;;22.10;47.30;;;;;;5040569;28;20129;-78
2021/06/14 10:52:56;;;;;;;2.42;2.22;;;22.20;46.00;;;;;;5035146;28;20084;-77
2021/06/14 10:55:27;;;;;;;3.15;2.22;;;22.20;44.40;;;;;;5038576;28;20038;-78
2021/06/14 10:57:52;;;;;;;2.67;2.20;;;22.10;43.90;;;;;;5048579;28;20025;-79
2021/06/14 11:00:36;;;;;;;3.70;2.00;;;22.30;43.50;;;;;;5037475;28;20040;-79
2021/06/14 11:03:12;;;;;;;4.93;2.50;;;22.20;41.20;;;;;;5039061;28;20048;-79
2021/06/14 11:05:43;;;;;;;4.10;2.50;;;22.30;46.10;;;;;;5032884;28;20048;-78
2021/06/14 11:08:11;;;;;;;3.25;2.58;;;22.40;44.20;;;;;;5034142;28;20071;-79
2021/06/14 11:10:37;;;;;;;2.25;1.67;;;22.30;47.80;;;;;;5034113;28;20072;-78
2021/06/14 11:13:10;;;;;;;4.30;2.38;;;22.40;37.70;;;;;;5040269;28;20499;-78
2021/06/14 11:15:36;;;;;;;5.38;2.20;;;22.30;41.40;;;;;;5036238;28;20071;-77
2021/06/14 11:18:06;;;;;;;3.78;2.45;;;22.50;43.60;;;;;;5032319;28;20029;-77
2021/06/14 11:20:35;;;;;;;3.55;2.50;;;22.60;45.80;;;;;;5036515;28;20033;-77
2021/06/14 11:23:01;;;;;;;5.07;2.30;;;22.50;42.50;;;;;;5031157;28;20086;-78
2021/06/14 11:25:33;;;;;;;9.13;2.42;;;22.40;41.20;;;;;;5034138;28;20025;-77
2021/06/14 11:28:03;;;;;;;1.92;1.80;;;22.40;44.10;;;;;;5032227;28;20060;-77
2021/06/14 11:30:34;;;;;;;3.22;1.80;;;22.40;39.80;;;;;;5034102;28;20072;-77
2021/06/14 11:33:01;;;;;;;3.92;1.83;;;22.40;38.30;;;;;;5034332;28;20434;-78
2021/06/14 11:35:28;;;;;;;2.97;2.30;;;22.50;43.20;;;;;;5032328;28;20029;-77
2021/06/14 11:37:54;;;;;;;4.35;2.20;;;22.50;42.30;;;;;;5032922;28;20052;-78
2021/06/14 11:40:38;;;;;;;7.07;2.42;;;22.50;39.30;;;;;;5042439;28;20069;-78
2021/06/14 11:43:12;;;;;;;2.47;2.00;;;22.50;41.80;;;;;;5042107;28;20559;-79
2021/06/14 11:45:45;;;;;;;2.50;1.90;;;22.40;42.50;;;;;;5037317;28;20035;-79
2021/06/14 11:48:31;;;;;;;2.50;1.77;;;22.50;41.80;;;;;;5058556;28;20492;-80
2021/06/14 11:51:18;;;;;;;3.60;1.77;;;22.50;39.10;;;;;;5039004;28;20403;-78
2021/06/14 11:53:53;;;;;;;4.43;1.80;;;22.50;41.10;;;;;;5044645;28;20628;-78
2021/06/14 11:56:24;;;;;;;2.15;1.83;;;22.40;42.40;;;;;;5036566;28;20021;-80
2021/06/14 11:58:58;;;;;;;3.38;1.80;;;22.30;37.60;;;;;;5045710;28;20494;-80
2021/06/14 12:01:25;;;;;;;2.65;1.60;;;22.40;35.90;;;;;;5042921;28;20041;-79
2021/06/14 12:03:58;;;;;;;4.40;1.73;;;22.30;38.90;;;;;;5033726;28;20057;-78
2021/06/14 12:06:25;;;;;;;2.38;1.90;;;22.30;39.80;;;;;;5043427;28;20289;-78
2021/06/14 12:08:51;;;;;;;2.00;1.50;;;22.30;39.50;;;;;;5038312;28;20717;-78
2021/06/14 12:11:23;;;;;;;2.33;2.10;;;22.50;42.40;;;;;;5034252;28;20034;-79
2021/06/14 12:13:48;;;;;;;3.20;1.80;;;22.60;41.90;;;;;;5039217;28;20021;-78
2021/06/14 12:16:14;;;;;;;2.40;1.80;;;22.50;37.10;;;;;;5034815;28;20025;-79
2021/06/14 12:18:39;;;;;;;4.93;2.00;;;22.50;39.10;;;;;;5038522;28;20033;-78
2021/06/14 12:21:09;;;;;;;3.30;1.65;;;22.60;42.80;;;;;;5034168;28;20918;-79
2021/06/14 12:23:40;;;;;;;4.15;2.10;;;22.70;42.10;;;;;;5037473;28;20555;-80
2021/06/14 12:26:12;;;;;;;2.55;1.60;;;22.80;43.10;;;;;;5040428;28;20494;-78
2021/06/14 12:28:40;;;;;;;3.38;1.92;;;22.60;39.70;;;;;;5035041;28;20029;-78
2021/06/14 12:31:10;;;;;;;2.90;1.92;;;22.70;41.00;;;;;;5039493;28;20055;-80
2021/06/14 12:33:37;;;;;;;2.10;1.90;;;22.80;39.90;;;;;;5038760;28;20084;-78
2021/06/14 12:36:04;;;;;;;5.38;2.25;;;22.80;41.60;;;;;;5035263;28;20032;-79
2021/06/14 12:38:30;;;;;;;4.82;2.13;;;22.90;41.80;;;;;;5035781;28;20017;-78
2021/06/14 12:40:58;;;;;;;2.65;1.90;;;22.80;38.50;;;;;;5041242;28;20021;-79
2021/06/14 12:43:24;;;;;;;4.15;2.08;;;22.70;36.30;;;;;;5035663;28;20032;-78
2021/06/14 12:45:53;;;;;;;3.03;1.80;;;22.70;37.70;;;;;;5037169;28;20488;-79
2021/06/14 12:48:19;;;;;;;1.83;1.50;;;22.70;38.00;;;;;;5031877;28;20116;-79
2021/06/14 12:50:52;;;;;;;2.45;2.03;;;22.90;44.90;;;;;;5041674;28;20112;-79
2021/06/14 12:53:22;;;;;;;4.15;2.00;;;22.90;40.10;;;;;;5034995;28;20032;-78
2021/06/14 12:55:50;;;;;;;3.50;1.75;;;22.90;37.60;;;;;;5034121;28;20021;-78